Flight Track Log - Related Links

Times and Time Zones

All times are in EDT time to prevent confusion due to time zone crossing. See the N595AA flight status page for this flight to view local times or setup timezone preferences in your user account.

Time Position Orientation Groundspeed Altitude Reporting Facility
EDT Latitude Longitude Course Direction KTS MPH feet Rate Location/Type
Sun 09:38:15 AM 32.7360 -117.1531 282° West  Level FlightAware
Sun 09:39:15 AM 32.7455 -117.0069 274° West  Level FlightAware
Sun 09:40:18 AM 32.7628 -117.3042 210° Southwest 220 253 3,000  Level Los Center
Sun 09:41:18 AM 32.7125 -117.3381 136° Southeast 200 230 5,500 2,550 Climbing Los Center
Sun 09:42:18 AM 32.6608 -117.2781 105° East 129 148 8,100 2,100 Climbing Los Center
Sun 09:43:18 AM 32.6428 -117.1989 101° East 187 215 9,700 1,550 Climbing Los Center
Sun 09:44:18 AM 32.6269 -117.1028 98° East 242 278 11,200 1,600 Climbing Los Center
Sun 09:45:18 AM 32.6133 -116.9867 85° East 317 365 12,900 1,950 Climbing Los Center
Sun 09:46:18 AM 32.6222 -116.8658 83° East 349 402 15,100 2,100 Climbing Los Center
Sun 09:47:18 AM 32.6356 -116.7353 84° East 364 419 17,100 2,100 Climbing Los Center
Sun 09:48:18 AM 32.6467 -116.6022 84° East 392 451 19,300 1,900 Climbing Los Center
Sun 09:49:18 AM 32.6597 -116.4642 85° East 405 466 20,900 1,500 Climbing Los Center
Sun 09:50:18 AM 32.6703 -116.3236 82° East 418 481 22,300 1,450 Climbing Los Center
Sun 09:51:18 AM 32.6872 -116.1778 84° East 430 495 23,800 1,450 Climbing Los Center
Sun 09:52:18 AM 32.6997 -116.0322 83° East 436 502 25,200 1,300 Climbing Los Center
Sun 09:53:18 AM 32.7142 -115.8817 84° East 451 519 26,400 1,100 Climbing Los Center
Sun 09:54:18 AM 32.7283 -115.7286 84° East 456 525 27,400 1,000 Climbing Los Center
Sun 09:55:18 AM 32.7422 -115.5681 87° East 469 540 28,400 1,100 Climbing Los Center
Sun 09:56:18 AM 32.7497 -115.4050 89° East 481 554 29,600 1,200 Climbing Los Center
Sun 09:57:18 AM 32.7531 -115.2469 88° East 481 554 30,800 1,100 Climbing Los Center
Sun 09:58:18 AM 32.7581 -115.0864 89° East 481 554 31,800 850 Climbing Los Center
Sun 09:59:18 AM 32.7608 -114.9258 89° East 481 554 32,500 600 Climbing Los Center
Sun 10:00:18 AM 32.7633 -114.7653 88° East 481 554 33,000 190 Climbing Los Center
Sun 10:01:56 AM 32.7708 -114.4903 89° East 493 567 33,000  Level Albuquerque Center
Sun 10:02:57 AM 32.7728 -114.3281 89° East 492 566 33,000  Level Albuquerque Center
Sun 10:03:59 AM 32.7756 -114.1656 89° East 492 566 33,000  Level Albuquerque Center
Sun 10:05:00 AM 32.7767 -114.0031 82° East 492 566 33,000  Level Albuquerque Center
Sun 10:06:01 AM 32.7961 -113.8422 80° East 489 563 33,000  Level Albuquerque Center
Sun 10:07:03 AM 32.8192 -113.6803 81° East 495 570 33,000  Level Albuquerque Center
Sun 10:08:04 AM 32.8408 -113.5200 80° East 493 567 33,000  Level Albuquerque Center
Sun 10:09:06 AM 32.8636 -113.3583 81° East 493 567 33,000  Level Albuquerque Center
Sun 10:10:07 AM 32.8906 -113.1650 81° East 492 566 33,000  Level Albuquerque Center
Sun 10:11:09 AM 32.9122 -113.0017 81° East 495 570 33,000  Level Albuquerque Center
Sun 10:12:10 AM 32.9344 -112.8383 81° East 496 571 33,000  Level Albuquerque Center
Sun 10:13:12 AM 32.9564 -112.6756 75° East 497 572 33,000  Level Albuquerque Center
Sun 10:14:13 AM 32.9911 -112.5181 77° East 489 563 33,000  Level Albuquerque Center
Sun 10:15:15 AM 33.0222 -112.3578 77° East 495 570 33,000  Level Albuquerque Center
Sun 10:16:16 AM 33.0536 -112.1981 77° East 497 572 33,000  Level Albuquerque Center
Sun 10:17:18 AM 33.0853 -112.0361 77° East 497 572 33,000  Level Albuquerque Center
Sun 10:18:20 AM 33.1172 -111.8750 77° East 495 570 33,000  Level Albuquerque Center
Sun 10:19:21 AM 33.1481 -111.7142 77° East 493 567 33,000  Level Albuquerque Center
Sun 10:20:23 AM 33.1783 -111.5528 77° East 494 568 33,000  Level Albuquerque Center
Sun 10:21:25 AM 33.2092 -111.3914 77° East 494 568 33,000  Level Albuquerque Center
Sun 10:22:26 AM 33.2458 -111.1950 78° East 498 573 33,000  Level Albuquerque Center
Sun 10:23:28 AM 33.2756 -111.0322 77° East 498 573 33,000  Level Albuquerque Center
Sun 10:24:30 AM 33.3072 -110.8667 77° East 502 578 33,000  Level Albuquerque Center
Sun 10:25:32 AM 33.3383 -110.7022 78° East 502 578 33,000  Level Albuquerque Center
Sun 10:26:34 AM 33.3686 -110.5322 78° East 501 577 33,000  Level Albuquerque Center
Sun 10:27:35 AM 33.3978 -110.3697 78° East 502 578 33,000  Level Albuquerque Center
Sun 10:28:37 AM 33.4261 -110.2078 78° East 501 577 33,000  Level Albuquerque Center
Sun 10:29:39 AM 33.4544 -110.0453 79° East 502 578 33,000  Level Albuquerque Center
Sun 10:30:41 AM 33.4822 -109.8808 78° East 505 581 33,000  Level Albuquerque Center
Sun 10:31:43 AM 33.5169 -109.6856 79° East 503 579 33,000  Level Albuquerque Center
Sun 10:32:45 AM 33.5439 -109.5222 78° East 503 579 33,000  Level Albuquerque Center
Sun 10:33:47 AM 33.5719 -109.3592 78° East 502 578 33,000  Level Albuquerque Center
Sun 10:34:49 AM 33.6003 -109.1950 79° East 502 578 33,000  Level Albuquerque Center
Sun 10:35:51 AM 33.6278 -109.0303 78° East 504 580 33,000  Level Albuquerque Center
Sun 10:36:52 AM 33.6558 -108.8669 79° East 503 579 33,000  Level Albuquerque Center
Sun 10:37:54 AM 33.6869 -108.6683 79° East 505 581 33,000  Level Albuquerque Center
Sun 10:38:56 AM 33.7139 -108.5036 79° East 505 581 33,000  Level Albuquerque Center
Sun 10:39:58 AM 33.7403 -108.3397 79° East 503 579 33,000  Level Albuquerque Center
Sun 10:41:00 AM 33.7658 -108.1758 79° East 503 579 33,000  Level Albuquerque Center
Sun 10:42:02 AM 33.7942 -107.9931 79° East 502 578 33,000  Level Albuquerque Center
Sun 10:43:04 AM 33.8203 -107.8264 79° East 504 580 33,000  Level Albuquerque Center
Sun 10:44:06 AM 33.8464 -107.6603 79° East 505 581 33,000  Level Albuquerque Center
Sun 10:45:08 AM 33.8725 -107.4942 80° East 505 581 33,000  Level Albuquerque Center
Sun 10:46:10 AM 33.8975 -107.3283 79° East 504 580 33,000  Level Albuquerque Center
Sun 10:47:12 AM 33.9231 -107.1617 80° East 505 581 33,000  Level Albuquerque Center
Sun 10:48:14 AM 33.9531 -106.9608 80° East 506 582 33,000  Level Albuquerque Center
Sun 10:49:16 AM 33.9781 -106.7939 80° East 507 583 33,000  Level Albuquerque Center
Sun 10:50:19 AM 34.0028 -106.6247 80° East 508 585 33,000  Level Albuquerque Center
Sun 10:51:21 AM 34.0272 -106.4564 80° East 509 586 33,000  Level Albuquerque Center
Sun 10:52:23 AM 34.0514 -106.2889 80° East 509 586 33,000  Level Albuquerque Center
Sun 10:53:25 AM 34.0786 -106.0928 80° East 509 586 33,000  Level Albuquerque Center
Sun 10:54:27 AM 34.1028 -105.9253 80° East 507 583 33,000  Level Albuquerque Center
Sun 10:55:29 AM 34.1278 -105.7556 81° East 508 585 33,000  Level Albuquerque Center
Sun 10:56:31 AM 34.1511 -105.5853 81° East 509 586 33,000  Level Albuquerque Center
Sun 10:57:33 AM 34.1739 -105.4153 81° East 509 586 33,000  Level Albuquerque Center
Sun 10:58:35 AM 34.2000 -105.2175 80° East 509 586 33,000  Level Albuquerque Center
Sun 10:59:38 AM 34.2239 -105.0497 82° East 507 583 33,000  Level Albuquerque Center
Sun 11:00:40 AM 34.2444 -104.8769 81° East 512 589 33,000  Level Albuquerque Center
Sun 11:01:42 AM 34.2667 -104.7056 81° East 512 589 33,000  Level Albuquerque Center
Sun 11:02:44 AM 34.2894 -104.5361 81° East 511 588 33,000  Level Albuquerque Center
Sun 11:03:46 AM 34.3108 -104.3667 81° East 508 585 33,000  Level Albuquerque Center
Sun 11:04:48 AM 34.3367 -104.1681 81° East 510 587 33,000  Level Albuquerque Center
Sun 11:05:51 AM 34.3578 -103.9981 82° East 510 587 33,000  Level Albuquerque Center
Sun 11:06:53 AM 34.3783 -103.8275 81° East 510 587 33,000  Level Albuquerque Center
Sun 11:07:55 AM 34.4003 -103.6578 82° East 510 587 33,000  Level Albuquerque Center
Sun 11:08:57 AM 34.4194 -103.4892 82° East 507 583 33,000  Level Albuquerque Center
Sun 11:09:47 AM 34.4350 -103.3503 82° East 502 578 33,000  Level Fort Center
Sun 11:10:47 AM 34.4553 -103.1831 82° East 502 578 33,000  Level Fort Center
Sun 11:11:47 AM 34.4756 -103.0156 83° East 502 578 33,000  Level Fort Center
Sun 11:12:47 AM 34.4933 -102.8456 96° East 502 578 33,000  Level Fort Center
Sun 11:13:47 AM 34.4778 -102.6783 98° East 496 571 33,000  Level Fort Center
Sun 11:14:47 AM 34.4594 -102.5111 97° East 496 571 33,000  Level Fort Center
Sun 11:15:47 AM 34.4433 -102.3464 97° East 501 577 33,000  Level Fort Center
Sun 11:16:47 AM 34.4253 -102.1617 98° East 504 580 33,000  Level Fort Center
Sun 11:17:47 AM 34.4078 -102.0172 98° East 490 564 33,000  Level Fort Center
Sun 11:18:47 AM 34.3886 -101.8525 97° East 490 564 33,000  Level Fort Center
Sun 11:19:47 AM 34.3700 -101.6706 98° East 485 558 33,000  Level Fort Center
Sun 11:20:47 AM 34.3519 -101.5211 97° East 497 572 33,000  Level Fort Center
Sun 11:21:47 AM 34.3344 -101.3569 98° East 497 572 33,000  Level Fort Center
Sun 11:22:47 AM 34.3164 -101.1953 98° East 497 572 33,000  Level Fort Center
Sun 11:23:47 AM 34.2983 -101.0336 99° East 487 560 33,000  Level Fort Center
Sun 11:24:47 AM 34.2778 -100.8692 97° East 487 560 33,000  Level Fort Center
Sun 11:25:47 AM 34.2614 -100.7103 99° East 487 560 33,000  Level Fort Center
Sun 11:26:47 AM 34.2403 -100.5486 98° East 487 560 33,000  Level Fort Center
Sun 11:27:47 AM 34.2214 -100.3897 100° East 487 560 33,000  Level Fort Center
Sun 11:28:47 AM 34.1961 -100.2208 108° East 493 567 33,000  Level Fort Center
Sun 11:29:47 AM 34.1556 -100.0689 108° East 487 560 33,000  Level Fort Center
Sun 11:30:47 AM 34.1150 -99.9144 108° East 482 555 33,000  Level Fort Center
Sun 11:31:47 AM 34.0739 -99.7631 108° East 482 555 33,000  Level Fort Center
Sun 11:32:47 AM 34.0331 -99.6114 108° East 482 555 33,000  Level Fort Center
Sun 11:33:47 AM 33.9917 -99.4575 108° East 482 555 33,000 -50 Level Fort Center
Sun 11:34:47 AM 33.9503 -99.3064 107° East 482 555 32,900 -950 Descending Fort Center
Sun 11:35:47 AM 33.9108 -99.1528 111° Southeast 482 555 31,100 -2,000 Descending Fort Center
Sun 11:36:47 AM 33.8586 -98.9917 107° East 476 548 28,900 -2,050 Descending Fort Center
Sun 11:37:47 AM 33.8208 -98.8386 115° Southeast 471 542 27,000 -1,950 Descending Fort Center
Sun 11:38:47 AM 33.7639 -98.6903 113° Southeast 471 542 25,000 -1,500 Descending Fort Center
Sun 11:39:47 AM 33.7133 -98.5472 114° Southeast 471 542 24,000 -500 Descending Fort Center
Sun 11:40:47 AM 33.6603 -98.4067 112° Southeast 471 542 24,000 -1,200 Level Fort Center
Sun 11:41:47 AM 33.6111 -98.2639 113° Southeast 465 535 21,600 -2,250 Descending Fort Center
Sun 11:42:47 AM 33.5661 -98.1389 114° Southeast 459 528 19,500 -2,400 Descending Fort Center
Sun 11:43:47 AM 33.5125 -97.9964 113° Southeast 436 502 16,800 -2,600 Descending Fort Center
Sun 11:44:47 AM 33.4733 -97.8867 115° Southeast 413 475 14,300 -2,650 Descending Fort Center
Sun 11:45:47 AM 33.4217 -97.7544 113° Southeast 399 459 11,500 -1,750 Descending Fort Center
Sun 11:46:47 AM 33.3864 -97.6572 131° Southeast 373 429 10,800 -800 Descending Fort Center
Sun 11:47:47 AM 33.3322 -97.5825 121° Southeast 319 367 9,900 -1,250 Descending Fort Center
Sun 11:48:47 AM 33.2842 -97.4881 134° Southeast 294 338 8,300 -1,250 Descending Fort Center
Sun 11:49:47 AM 33.2383 -97.4308 165° South 275 316 7,400 -1,100 Descending Fort Center
Sun 11:50:47 AM 33.1778 -97.4108 175° South 220 253 6,100 -1,300 Descending Fort Center
Sun 11:51:47 AM 33.1278 -97.4061 92° East 209 241 4,800 -1,000 Descending Fort Center
Sun 11:52:47 AM 33.1256 -97.3439 110° East 147 169 4,100 -350 Descending Fort Center
Sun 11:53:47 AM 33.1108 -97.2944 138° Southeast 163 188 4,100  Level Fort Center
Sun 11:54:47 AM 33.0711 -97.2522 138° Southeast 168 193 4,100  Level Fort Center

Login

Don't have an account? Register now (free) for customized features, flight alerts, and more!